This is the latest recevied weather packets stored in our database for station/object K0QED. If no packets are shown the sender has not sent any weather packets the latest 10 day(s).
| Time | Temp. | Humidity | Pressure | Rain* | Wind** | Luminosity | Snow |
|---|---|---|---|---|---|---|---|
| 1788301964 | 25.56° C | 33% | 1024.6 hPa | 0 mm | - | 456 W/m² | - |
| 1788301660 | 24.44° C | 35% | 1024.9 hPa | 0 mm | - | 188 W/m² | - |
| 1788301356 | 24.44° C | 35% | 1024.9 hPa | 0 mm | - | 89 W/m² | - |
| 1788301052 | 24.44° C | 36% | 1024.6 hPa | 0 mm | - | 92 W/m² | - |
| 1788300748 | 24.44° C | 35% | 1024.7 hPa | 0 mm | - | 107 W/m² | - |
| 1788300447 | 25° C | 35% | 1024.9 hPa | 0 mm | - | 121 W/m² | - |
| 1788300141 | 25° C | 35% | 1024.9 hPa | 0 mm | - | 105 W/m² | - |
| 1788299839 | 25.56° C | 33% | 1024.9 hPa | 0 mm | - | 111 W/m² | - |
| 1788299534 | 25.56° C | 33% | 1024.7 hPa | 0 mm | - | 142 W/m² | - |
| 1788299232 | 25.56° C | 33% | 1025.1 hPa | 0 mm | - | 442 W/m² | - |
| 1788298927 | 26.11° C | 33% | 1024.6 hPa | 0 mm | - | 138 W/m² | - |
| 1788298626 | 26.67° C | 32% | 1024.6 hPa | 0 mm | - | 576 W/m² | - |
| 1788298321 | 25° C | 35% | 1025 hPa | 0 mm | - | 534 W/m² | - |
| 1788298021 | 25° C | 34% | 1025.1 hPa | 0 mm | - | 195 W/m² | - |
| 1788297717 | 25° C | 34% | 1025.2 hPa | 0 mm | - | 112 W/m² | - |
| 1788297417 | 25.56° C | 33% | 1025.1 hPa | 0 mm | - | 117 W/m² | - |
| 1788297114 | 25.56° C | 35% | 1025.2 hPa | 0 mm | - | 457 W/m² | - |
| 1788296808 | 24.44° C | 35% | 1025.4 hPa | 0 mm | - | 641 W/m² | - |
| 1788296504 | 25° C | 36% | 1025.7 hPa | 0 mm | - | 134 W/m² | - |
| 1788296200 | 25.56° C | 34% | 1025.4 hPa | 0 mm | - | 110 W/m² | - |
| 1788295900 | 26.11° C | 33% | 1025.9 hPa | 0 mm | - | 586 W/m² | - |
| 1788295595 | 26.11° C | 32% | 1025.5 hPa | 0 mm | - | 615 W/m² | - |
| 1788295291 | 25° C | 35% | 1025.5 hPa | 0 mm | - | 642 W/m² | - |
| 1788294985 | 25.56° C | 34% | 1025.7 hPa | 0 mm | - | 694 W/m² | - |
| 1788294680 | 25.56° C | 34% | 1025.7 hPa | 0 mm | - | 703 W/m² | - |
* Rain latest hour (hover to see other rain measurements)
** Current wind speed in m/s (hover to see current wind gust speed)